Time;durP1;ratioP1;P1;durP2;ratioP2;P2;SDS_P1;SDS_P2;PMS_P1;PMS_P2;Temp;Humidity;BMP_temperature;BMP_pressure;BME280_temperature;BME280_humidity;BME280_pressure;Samples;Min_cycle;Max_cycle;Signal;HPM_P1;HPM_P2
2023/05/31 00:02:31;;;;;;;10.53;6.72;;;;;;;14.02;64.74;100453.64;1731465;82;21337;-60
2023/05/31 00:05:36;;;;;;;9.43;6.90;;;;;;;13.97;64.86;100452.03;1732154;81;21368;-60
2023/05/31 00:08:42;;;;;;;12.95;7.45;;;;;;;13.95;64.98;100460.99;1730685;82;21364;-60
2023/05/31 00:11:48;;;;;;;12.00;7.33;;;;;;;13.91;65.11;100461.04;1732061;81;21407;-60
2023/05/31 00:14:54;;;;;;;9.40;6.65;;;;;;;13.88;65.19;100458.17;1727169;82;21849;-60
2023/05/31 00:18:00;;;;;;;10.72;6.75;;;;;;;13.88;65.34;100460.06;1720417;81;21904;-60
2023/05/31 00:21:05;;;;;;;11.12;7.58;;;;;;;13.85;65.45;100466.81;1719531;82;21598;-59
2023/05/31 00:24:11;;;;;;;11.15;7.25;;;;;;;13.83;65.50;100474.41;1720414;82;21193;-60
2023/05/31 00:27:17;;;;;;;8.98;7.40;;;;;;;13.78;65.50;100470.55;1709285;83;21718;-60
2023/05/31 00:30:25;;;;;;;8.53;7.08;;;;;;;13.73;65.42;100475.78;1719303;82;21225;-59
2023/05/31 00:33:31;;;;;;;8.10;6.62;;;;;;;13.69;65.56;100473.06;1721909;82;21723;-59
2023/05/31 00:36:37;;;;;;;8.85;6.17;;;;;;;13.69;65.75;100475.81;1720063;82;21707;-60
2023/05/31 00:39:44;;;;;;;12.35;6.47;;;;;;;13.67;65.90;100471.05;1719484;82;21217;-60
2023/05/31 00:42:50;;;;;;;13.22;6.75;;;;;;;13.62;65.87;100474.91;1719837;82;21174;-60
2023/05/31 00:45:57;;;;;;;8.33;6.67;;;;;;;13.56;65.79;100467.43;1718478;83;21233;-60
2023/05/31 00:49:03;;;;;;;10.68;6.40;;;;;;;13.51;65.86;100477.09;1719538;82;21229;-60
2023/05/31 00:52:09;;;;;;;9.63;6.80;;;;;;;13.46;65.88;100474.61;1718730;82;21781;-60
2023/05/31 00:55:15;;;;;;;10.15;6.53;;;;;;;13.43;65.93;100477.20;1718881;82;21256;-60
2023/05/31 00:58:21;;;;;;;10.95;6.87;;;;;;;13.39;66.03;100469.02;1723066;81;21213;-61
2023/05/31 01:01:32;;;;;;;10.13;6.15;;;;;;;13.40;66.21;100479.47;1719551;82;21814;-58
2023/05/31 01:04:39;;;;;;;11.78;6.78;;;;;;;13.40;66.36;100484.46;1720474;82;21222;-60
2023/05/31 01:07:45;;;;;;;10.95;6.03;;;;;;;13.39;66.51;100478.64;1719611;82;21301;-59
2023/05/31 01:10:52;;;;;;;10.78;6.80;;;;;;;13.38;66.65;100482.41;1719954;82;21240;-59
2023/05/31 01:14:30;;;;;;;11.08;6.30;;;;;;;13.35;66.57;100480.05;1720628;82;21325;-60
2023/05/31 01:18:18;;;;;;;7.67;5.97;;;;;;;13.29;66.51;100480.83;1743998;82;21407;-61
2023/05/31 01:21:25;;;;;;;8.48;6.40;;;;;;;13.27;66.56;100480.70;1698521;84;21378;-60
2023/05/31 01:24:47;;;;;;;8.35;6.00;;;;;;;13.25;66.77;100479.52;1698448;84;21190;-60
2023/05/31 01:27:54;;;;;;;8.68;6.65;;;;;;;13.25;66.94;100482.27;1741385;82;21367;-60
2023/05/31 01:31:01;;;;;;;8.58;6.15;;;;;;;13.22;66.86;100477.66;1747042;82;21387;-60
2023/05/31 01:34:08;;;;;;;9.60;6.85;;;;;;;13.18;66.86;100484.56;1744001;81;21364;-59
2023/05/31 01:37:14;;;;;;;10.23;7.25;;;;;;;13.15;66.97;100477.56;1744239;81;21364;-60
2023/05/31 01:40:20;;;;;;;9.00;6.47;;;;;;;13.15;67.06;100487.19;1744063;81;21415;-60
2023/05/31 01:43:27;;;;;;;14.38;7.62;;;;;;;13.14;67.16;100483.25;1744103;82;22032;-60
2023/05/31 01:46:33;;;;;;;8.10;6.47;;;;;;;13.14;67.23;100487.38;1744076;81;21845;-59
2023/05/31 01:49:40;;;;;;;12.28;7.58;;;;;;;13.13;67.31;100487.89;1744153;81;21364;-60
2023/05/31 01:52:49;;;;;;;11.63;7.25;;;;;;;13.12;67.38;100484.82;1747073;82;21380;-61
2023/05/31 01:55:55;;;;;;;8.95;6.50;;;;;;;13.11;67.40;100484.47;1743385;82;21360;-61
2023/05/31 01:59:01;;;;;;;8.40;6.30;;;;;;;13.12;67.56;100488.94;1743950;82;21884;-61
2023/05/31 02:02:09;;;;;;;11.45;7.10;;;;;;;13.14;67.63;100497.86;1744105;82;21356;-60
2023/05/31 02:05:17;;;;;;;9.98;7.33;;;;;;;13.12;67.63;100494.95;1747094;82;21347;-60
2023/05/31 02:08:23;;;;;;;11.08;7.10;;;;;;;13.13;67.70;100496.14;1744125;81;21340;-60
2023/05/31 02:11:32;;;;;;;10.93;6.80;;;;;;;13.12;67.71;100497.19;1744034;81;21360;-60
2023/05/31 02:14:37;;;;;;;10.32;6.95;;;;;;;13.14;67.87;100506.11;1747099;82;21388;-60
2023/05/31 02:17:46;;;;;;;12.25;6.70;;;;;;;13.15;67.92;100501.44;1738074;81;21901;-58
2023/05/31 02:20:54;;;;;;;10.55;7.17;;;;;;;13.16;67.94;100511.41;1736627;82;21360;-60
2023/05/31 02:24:01;;;;;;;15.78;7.92;;;;;;;13.18;67.97;100512.92;1737240;82;21344;-62
2023/05/31 02:27:07;;;;;;;9.95;6.53;;;;;;;13.19;67.99;100513.78;1736699;81;21944;-60
2023/05/31 02:30:16;;;;;;;14.13;7.25;;;;;;;13.21;68.07;100518.03;1736588;81;21869;-60
2023/05/31 02:33:21;;;;;;;11.70;7.72;;;;;;;13.25;68.16;100518.52;1736557;82;21336;-60
2023/05/31 02:36:29;;;;;;;9.30;7.22;;;;;;;13.28;68.24;100518.99;1737048;81;21716;-60
2023/05/31 02:39:36;;;;;;;10.72;7.30;;;;;;;13.33;68.32;100519.25;1736858;82;21933;-59
2023/05/31 02:42:46;;;;;;;10.90;7.42;;;;;;;13.39;68.36;100518.52;1736611;81;21363;-59
2023/05/31 02:45:54;;;;;;;13.93;7.70;;;;;;;13.43;68.43;100519.83;1736891;81;21352;-59
2023/05/31 02:49:02;;;;;;;10.58;7.45;;;;;;;13.48;68.51;100518.73;1737454;82;21897;-60
2023/05/31 02:52:02;;;;;;;11.00;7.75;;;;;;;13.54;68.62;100516.59;1737203;81;21348;-59
2023/05/31 02:55:25;;;;;;;;;;;;;;;13.65;68.85;100519.91;1707008;82;21244;-60
2023/05/31 02:58:33;;;;;;;10.28;6.60;;;;;;;13.75;68.92;100519.09;1714922;81;20309;-60
2023/05/31 03:14:55;;;;;;;16.52;10.93;;;;;;;14.64;68.67;100523.55;1808312;79;28349;-53
2023/05/31 03:18:01;;;;;;;13.90;8.50;;;;;;;14.68;68.68;100524.87;1787591;80;21346;-54
2023/05/31 03:21:07;;;;;;;14.85;8.25;;;;;;;14.75;68.76;100525.77;1749608;82;21362;-52
2023/05/31 03:24:14;;;;;;;9.58;7.72;;;;;;;14.84;68.89;100530.94;1784681;80;21425;-53
2023/05/31 03:27:22;;;;;;;14.78;8.75;;;;;;;14.92;69.05;100524.45;1784698;80;21212;-54
2023/05/31 03:30:29;;;;;;;16.45;8.65;;;;;;;14.99;69.17;100522.06;1784761;80;21365;-52
2023/05/31 03:33:36;;;;;;;14.93;8.18;;;;;;;15.08;69.30;100526.88;1749039;82;21512;-53
2023/05/31 03:36:43;;;;;;;13.95;7.92;;;;;;;15.17;69.39;100521.55;1783287;80;21429;-53
2023/05/31 03:39:53;;;;;;;11.50;7.95;;;;;;;15.26;69.50;100524.98;1783559;80;21835;-53
2023/05/31 03:42:58;;;;;;;15.80;8.20;;;;;;;15.35;69.62;100527.38;1783274;79;21393;-53
2023/05/31 03:46:03;;;;;;;11.38;8.15;;;;;;;15.45;69.71;100529.28;1782987;80;21350;-54
2023/05/31 03:49:09;;;;;;;14.63;8.93;;;;;;;15.55;69.81;100527.53;1783351;80;21346;-53
2023/05/31 03:52:16;;;;;;;10.68;7.25;;;;;;;15.64;69.89;100525.77;1784177;80;21354;-53
2023/05/31 03:55:24;;;;;;;10.55;7.72;;;;;;;15.77;69.96;100535.50;1783772;80;21350;-53
2023/05/31 03:58:31;;;;;;;9.33;7.83;;;;;;;15.87;70.05;100535.95;1783666;80;21367;-53
2023/05/31 04:01:41;;;;;;;14.25;7.40;;;;;;;15.99;70.10;100539.84;1782511;80;21350;-53
2023/05/31 04:04:47;;;;;;;12.18;7.65;;;;;;;16.11;70.15;100533.20;1783556;80;22253;-53
2023/05/31 04:07:54;;;;;;;10.48;7.33;;;;;;;16.23;70.20;100528.23;1783707;80;21240;-53
2023/05/31 04:11:00;;;;;;;9.38;7.35;;;;;;;16.36;70.27;100535.70;1783886;80;21496;-53
2023/05/31 04:14:08;;;;;;;14.80;8.03;;;;;;;16.48;70.30;100530.41;1783922;79;21363;-53
2023/05/31 04:17:14;;;;;;;11.55;6.55;;;;;;;16.61;70.37;100536.83;1783651;80;21389;-53
2023/05/31 04:20:21;;;;;;;13.00;8.25;;;;;;;16.73;70.44;100529.59;1783435;80;21346;-52
2023/05/31 04:23:27;;;;;;;10.18;7.53;;;;;;;16.86;70.46;100535.14;1784141;80;21283;-52
2023/05/31 04:26:34;;;;;;;14.25;10.40;;;;;;;16.98;70.47;100533.97;1783238;80;21310;-52
2023/05/31 04:29:40;;;;;;;15.90;9.93;;;;;;;17.10;70.53;100540.02;1782574;80;21341;-52
2023/05/31 04:32:52;;;;;;;12.80;7.60;;;;;;;17.23;70.55;100542.78;1782908;80;21341;-53
2023/05/31 04:35:57;;;;;;;8.55;6.10;;;;;;;17.34;70.54;100538.50;1784181;80;21298;-54
2023/05/31 04:39:09;;;;;;;8.95;6.17;;;;;;;17.49;70.55;100537.77;1782937;80;21307;-53
2023/05/31 04:42:13;;;;;;;11.90;6.37;;;;;;;17.62;70.58;100543.25;1748465;82;21247;-52
2023/05/31 04:45:20;;;;;;;7.78;5.75;;;;;;;17.74;70.60;100540.14;1773522;80;21713;-53
2023/05/31 04:48:26;;;;;;;9.45;6.08;;;;;;;17.89;70.63;100536.55;1781463;80;21759;-52
2023/05/31 04:51:31;;;;;;;6.78;4.67;;;;;;;18.02;70.61;100543.42;1782449;80;21196;-53
2023/05/31 04:54:37;;;;;;;9.58;5.65;;;;;;;18.14;70.60;100543.03;1765428;81;21350;-51
2023/05/31 04:57:42;;;;;;;7.75;5.37;;;;;;;18.28;70.55;100538.29;1765239;81;21383;-52
2023/05/31 05:00:49;;;;;;;9.58;5.62;;;;;;;18.39;70.54;100532.94;1717971;82;21208;-46
2023/05/31 05:03:58;;;;;;;9.75;5.83;;;;;;;18.54;70.55;100528.44;1768303;80;22042;-45
2023/05/31 05:07:06;;;;;;;63.98;27.98;;;;;;;18.66;70.53;100534.42;1743141;82;21866;-47
2023/05/31 05:10:13;;;;;;;12.60;6.37;;;;;;;18.81;70.54;100528.03;1762505;80;21204;-50
2023/05/31 05:13:21;;;;;;;12.35;5.67;;;;;;;18.93;70.51;100521.22;1689377;85;21433;-49
2023/05/31 05:16:27;;;;;;;7.55;5.17;;;;;;;19.06;70.43;100527.48;1702707;80;21245;-50
2023/05/31 05:19:34;;;;;;;8.13;4.00;;;;;;;19.18;70.37;100519.27;1729345;82;21422;-51
2023/05/31 05:23:02;;;;;;;6.33;3.47;;;;;;;19.29;70.26;100522.19;1729598;81;21185;-51
2023/05/31 05:26:06;;;;;;;5.00;3.17;;;;;;;19.45;70.24;100522.13;1722138;82;21216;-50
2023/05/31 05:29:12;;;;;;;6.20;3.02;;;;;;;19.61;70.17;100520.67;1716365;81;21237;-49
2023/05/31 05:32:18;;;;;;;12.23;3.87;;;;;;;19.76;70.08;100523.89;1768483;80;21311;-51
2023/05/31 05:35:25;;;;;;;6.92;3.70;;;;;;;19.91;70.04;100529.39;1772270;80;21212;-50
2023/05/31 05:38:33;;;;;;;6.47;3.33;;;;;;;20.03;69.89;100516.92;1769870;81;21247;-49
2023/05/31 05:41:39;;;;;;;4.92;3.20;;;;;;;20.15;69.75;100511.76;1762808;80;21254;-51
2023/05/31 05:44:47;;;;;;;4.83;3.35;;;;;;;20.26;69.57;100511.52;1765587;80;21678;-49
2023/05/31 05:47:55;;;;;;;6.58;3.62;;;;;;;20.34;69.39;100513.98;1730010;81;21386;-49
2023/05/31 05:50:59;;;;;;;10.90;3.77;;;;;;;20.44;69.25;100514.23;1707687;82;21254;-50
2023/05/31 05:54:07;;;;;;;6.72;3.92;;;;;;;20.56;69.16;100517.92;1734366;82;21243;-48
2023/05/31 05:57:14;;;;;;;5.97;3.15;;;;;;;20.65;69.04;100516.48;1729497;81;21239;-50
2023/05/31 06:00:17;;;;;;;4.45;2.90;;;;;;;20.74;68.87;100510.34;1724538;81;21197;-50
2023/05/31 06:03:23;;;;;;;4.15;2.83;;;;;;;20.83;68.68;100507.50;1749956;81;21795;-49
2023/05/31 06:06:31;;;;;;;7.53;3.00;;;;;;;20.92;68.47;100509.41;1773993;81;21357;-50
2023/05/31 06:09:41;;;;;;;8.28;2.80;;;;;;;21.02;68.33;100504.14;1765018;80;21259;-50
2023/05/31 06:12:50;;;;;;;7.50;2.72;;;;;;;21.14;68.10;100506.91;1768293;80;21228;-48
2023/05/31 06:15:58;;;;;;;4.58;2.33;;;;;;;21.22;67.85;100507.41;1767029;80;21224;-52
2023/05/31 06:19:04;;;;;;;4.28;2.62;;;;;;;21.31;67.61;100499.55;1764084;81;21311;-51
2023/05/31 06:22:13;;;;;;;5.70;2.50;;;;;;;21.39;67.30;100515.89;1763611;81;21379;-55
2023/05/31 06:25:22;;;;;;;3.85;2.33;;;;;;;21.43;67.08;100509.59;1774821;80;21716;-53
2023/05/31 06:28:28;;;;;;;7.90;3.02;;;;;;;21.49;66.94;100503.03;1751068;81;21208;-54
2023/05/31 06:31:40;;;;;;;7.65;3.30;;;;;;;21.59;66.81;100506.06;1740794;80;21181;-57
2023/05/31 06:34:48;;;;;;;4.97;3.55;;;;;;;21.69;66.57;100513.23;1764033;80;21211;-57
2023/05/31 06:37:53;;;;;;;4.10;3.10;;;;;;;21.74;66.32;100511.13;1756123;80;21287;-53
2023/05/31 06:40:59;;;;;;;5.22;2.92;;;;;;;21.77;66.11;100511.50;1757264;80;21757;-53
2023/05/31 06:44:04;;;;;;;9.48;3.30;;;;;;;21.82;65.89;100507.43;1725178;80;21795;-54
2023/05/31 06:47:12;;;;;;;7.00;3.45;;;;;;;21.90;65.71;100514.02;1749834;80;21589;-53
2023/05/31 06:50:26;;;;;;;5.80;2.95;;;;;;;21.94;65.38;100511.59;1752838;80;21735;-54
2023/05/31 06:53:27;;;;;;;5.92;3.20;;;;;;;22.00;65.14;100513.39;1736189;80;21333;-52
2023/05/31 06:56:38;;;;;;;8.38;2.47;;;;;;;22.06;65.02;100511.00;1767001;80;21777;-53
2023/05/31 06:59:45;;;;;;;6.60;3.17;;;;;;;22.14;64.80;100515.65;1762266;80;21510;-56
2023/05/31 07:02:53;;;;;;;8.80;3.15;;;;;;;22.19;64.57;100510.18;1761572;80;21249;-53
2023/05/31 07:06:00;;;;;;;6.50;3.67;;;;;;;22.27;64.33;100506.67;1744336;82;21534;-52
2023/05/31 07:09:07;;;;;;;6.42;3.12;;;;;;;22.33;64.10;100504.28;1745087;82;21223;-54
2023/05/31 07:12:21;;;;;;;8.20;3.20;;;;;;;22.39;63.90;100510.28;1751123;80;21176;-53
2023/05/31 07:15:27;;;;;;;9.75;3.33;;;;;;;22.47;63.56;100495.93;1763646;80;21735;-53
2023/05/31 07:18:38;;;;;;;6.78;2.77;;;;;;;22.54;63.28;100511.98;1764901;80;21341;-54
2023/05/31 07:21:52;;;;;;;4.72;3.20;;;;;;;22.60;63.05;100502.60;1727300;81;21314;-54
2023/05/31 07:24:59;;;;;;;5.35;2.70;;;;;;;22.69;62.82;100505.30;1774897;80;21192;-55
2023/05/31 07:28:05;;;;;;;5.17;2.90;;;;;;;22.73;62.52;100502.28;1767960;80;21232;-54
2023/05/31 07:31:11;;;;;;;6.35;2.92;;;;;;;22.78;62.20;100504.64;1775479;80;21775;-57
2023/05/31 07:34:19;;;;;;;5.45;2.50;;;;;;;22.84;61.92;100514.79;1773582;80;21322;-54
2023/05/31 07:37:27;;;;;;;5.83;2.72;;;;;;;22.90;61.56;100504.53;1769117;80;21239;-53
2023/05/31 07:40:35;;;;;;;5.85;3.12;;;;;;;22.92;61.22;100491.17;1776781;80;21664;-53
2023/05/31 07:43:41;;;;;;;4.55;2.75;;;;;;;22.99;60.98;100496.88;1747314;80;21405;-55
2023/05/31 07:46:51;;;;;;;6.03;2.90;;;;;;;23.08;60.66;100504.30;1763772;81;21199;-53
2023/05/31 07:49:58;;;;;;;4.72;2.87;;;;;;;23.13;60.28;100488.48;1762647;80;21239;-51
2023/05/31 07:53:05;;;;;;;5.83;2.70;;;;;;;23.18;59.90;100482.13;1754559;80;21796;-54
2023/05/31 07:56:12;;;;;;;6.62;2.92;;;;;;;23.28;59.58;100495.72;1744433;80;21193;-53
2023/05/31 07:59:19;;;;;;;5.92;2.75;;;;;;;23.39;59.18;100485.53;1744838;82;21225;-53
2023/05/31 08:02:25;;;;;;;5.95;2.55;;;;;;;23.48;58.82;100488.20;1745231;82;21270;-54
2023/05/31 08:05:33;;;;;;;5.00;2.47;;;;;;;23.54;58.42;100482.98;1746006;82;21220;-53
2023/05/31 08:08:41;;;;;;;4.85;2.90;;;;;;;23.67;58.19;100488.20;1709814;82;21250;-52
2023/05/31 08:11:49;;;;;;;5.92;2.70;;;;;;;23.84;57.89;100492.32;1723179;80;21284;-54
2023/05/31 08:14:56;;;;;;;5.30;2.20;;;;;;;24.02;57.51;100496.23;1761169;80;21332;-53
2023/05/31 08:18:02;;;;;;;4.00;2.58;;;;;;;24.09;56.83;100493.53;1766231;80;21212;-53
2023/05/31 08:21:07;;;;;;;6.72;2.77;;;;;;;24.14;56.34;100506.73;1733732;81;21219;-53
2023/05/31 08:24:13;;;;;;;8.80;2.80;;;;;;;24.16;55.91;100496.98;1723261;82;21272;-54
2023/05/31 08:27:18;;;;;;;4.37;2.37;;;;;;;24.21;55.58;100497.05;1709257;82;21228;-57
2023/05/31 08:30:25;;;;;;;6.37;2.45;;;;;;;24.24;55.05;100502.66;1764868;79;21247;-56
2023/05/31 08:33:35;;;;;;;6.20;3.08;;;;;;;24.22;54.64;100496.47;1763319;81;21221;-56
2023/05/31 08:36:41;;;;;;;6.65;2.77;;;;;;;24.18;54.21;100504.53;1755622;80;21184;-57
2023/05/31 08:39:51;;;;;;;5.70;2.92;;;;;;;24.21;53.83;100497.05;1761082;81;21313;-56
2023/05/31 08:43:02;;;;;;;7.50;2.75;;;;;;;24.29;53.51;100495.73;1758004;80;21481;-56
2023/05/31 08:46:08;;;;;;;8.78;2.80;;;;;;;24.35;53.09;100489.93;1758598;80;21794;-56
2023/05/31 08:49:18;;;;;;;6.37;2.83;;;;;;;24.39;52.61;100496.67;1734790;81;21353;-57
2023/05/31 08:52:24;;;;;;;6.15;2.87;;;;;;;24.45;52.29;100499.81;1707796;82;21552;-56
2023/05/31 08:55:31;;;;;;;5.08;2.87;;;;;;;24.49;51.80;100492.59;1742443;81;21673;-57
2023/05/31 08:58:39;;;;;;;4.53;2.70;;;;;;;24.62;51.49;100489.38;1736117;81;21176;-57
2023/05/31 09:01:48;;;;;;;6.37;2.47;;;;;;;24.72;51.01;100492.87;1754372;80;21375;-56
2023/05/31 09:04:58;;;;;;;6.50;2.55;;;;;;;24.76;50.51;100483.66;1757644;81;21258;-57
2023/05/31 09:08:07;;;;;;;3.50;2.70;;;;;;;24.79;50.15;100484.53;1741970;82;21192;-56
2023/05/31 09:11:14;;;;;;;6.12;2.77;;;;;;;24.89;49.87;100482.38;1710973;82;21717;-56
2023/05/31 09:14:33;;;;;;;8.00;2.52;;;;;;;24.98;49.46;100474.61;1684253;85;21793;-56
2023/05/31 09:17:43;;;;;;;4.42;2.75;;;;;;;25.08;49.05;100480.85;1750903;81;21348;-57
2023/05/31 09:20:53;;;;;;;4.50;2.65;;;;;;;25.17;48.67;100488.19;1744925;79;21670;-56
2023/05/31 09:24:01;;;;;;;4.78;2.75;;;;;;;25.28;48.29;100482.94;1734463;82;21752;-57
2023/05/31 09:27:06;;;;;;;4.62;2.50;;;;;;;25.41;47.85;100474.10;1766328;80;21196;-57
2023/05/31 09:30:17;;;;;;;4.42;2.35;;;;;;;25.56;47.46;100478.42;1775845;80;21216;-56
2023/05/31 09:33:25;;;;;;;4.90;2.60;;;;;;;25.65;47.05;100472.02;1776490;80;21740;-54
2023/05/31 09:36:36;;;;;;;6.83;2.52;;;;;;;25.58;46.60;100478.42;1739907;80;21748;-52
2023/05/31 09:39:45;;;;;;;6.80;2.60;;;;;;;25.58;46.21;100478.97;1701680;84;21418;-52
2023/05/31 09:43:01;;;;;;;7.25;2.95;;;;;;;25.65;45.98;100476.78;1701131;82;21413;-54
2023/05/31 09:46:07;;;;;;;5.08;2.90;;;;;;;25.67;45.62;100473.97;1673290;85;21585;-51
2023/05/31 09:49:15;;;;;;;7.37;2.92;;;;;;;25.69;45.28;100465.32;1681697;85;21611;-47
2023/05/31 09:52:22;;;;;;;6.33;2.65;;;;;;;25.89;45.18;100464.86;1713259;82;21579;-47
2023/05/31 09:55:29;;;;;;;6.65;2.87;;;;;;;26.15;44.91;100468.05;1702304;84;21369;-49
2023/05/31 09:58:38;;;;;;;3.85;2.50;;;;;;;26.09;44.33;100458.48;1742891;80;21768;-49
2023/05/31 10:01:46;;;;;;;8.20;2.45;;;;;;;25.90;43.83;100468.48;1739155;82;21358;-48
2023/05/31 10:04:53;;;;;;;7.12;2.60;;;;;;;25.72;43.54;100466.17;1739576;82;21204;-47
2023/05/31 10:08:00;;;;;;;8.30;3.25;;;;;;;25.72;43.35;100454.95;1766791;80;21216;-47
2023/05/31 10:11:08;;;;;;;4.75;2.80;;;;;;;25.91;43.24;100455.58;1768595;81;21740;-46
2023/05/31 10:14:18;;;;;;;8.63;2.80;;;;;;;26.09;42.98;100465.50;1765543;80;21271;-48
2023/05/31 10:17:25;;;;;;;6.83;2.95;;;;;;;26.17;42.75;100460.77;1769446;80;21371;-48
2023/05/31 10:20:44;;;;;;;5.05;2.70;;;;;;;26.39;42.63;100451.55;1744475;81;21215;-47
2023/05/31 10:23:55;;;;;;;6.17;3.27;;;;;;;26.66;42.41;100459.22;1755009;81;21770;-47
2023/05/31 10:27:22;;;;;;;7.33;2.92;;;;;;;26.89;42.12;100460.09;1744527;81;21189;-46
2023/05/31 10:30:29;;;;;;;4.78;2.92;;;;;;;26.79;41.57;100461.48;1737667;81;21380;-47
2023/05/31 10:33:36;;;;;;;6.30;3.15;;;;;;;26.57;41.13;100462.27;1766732;81;21378;-46
2023/05/31 10:36:43;;;;;;;7.70;3.30;;;;;;;26.34;40.70;100457.16;1763892;81;21256;-47
2023/05/31 10:40:05;;;;;;;6.62;2.90;;;;;;;26.12;40.46;100459.34;1748933;81;21820;-48
2023/05/31 10:43:33;;;;;;;8.30;3.08;;;;;;;26.05;40.34;100456.78;1736337;79;21225;-49
2023/05/31 10:46:40;;;;;;;4.67;2.50;;;;;;;26.31;40.47;100449.29;1744833;80;21732;-51
2023/05/31 10:49:46;;;;;;;6.72;2.72;;;;;;;26.74;40.43;100436.19;1754419;80;21257;-49
2023/05/31 10:52:58;;;;;;;8.13;2.65;;;;;;;27.09;40.21;100446.02;1769211;80;21712;-53
2023/05/31 10:56:14;;;;;;;4.28;2.65;;;;;;;27.06;39.56;100447.99;1772234;80;21362;-54
2023/05/31 10:59:24;;;;;;;4.92;2.50;;;;;;;26.88;39.17;100444.92;1766331;80;21574;-51
2023/05/31 11:02:30;;;;;;;4.65;2.20;;;;;;;26.74;38.89;100453.05;1742423;81;21200;-53
2023/05/31 11:05:36;;;;;;;4.92;2.90;;;;;;;26.62;38.65;100441.22;1758133;80;21275;-53
2023/05/31 11:08:43;;;;;;;6.67;2.77;;;;;;;26.58;38.58;100451.30;1750624;80;21771;-50
2023/05/31 11:11:53;;;;;;;7.67;2.77;;;;;;;26.55;38.35;100446.25;1753339;79;21196;-50
2023/05/31 11:15:09;;;;;;;10.50;3.20;;;;;;;26.50;38.21;100449.63;1766383;80;21346;-49
2023/05/31 11:18:27;;;;;;;6.05;2.33;;;;;;;26.43;38.00;100445.68;1767460;80;21236;-52
2023/05/31 11:21:59;;;;;;;9.08;3.02;;;;;;;26.39;37.90;100448.75;1770094;80;21624;-51
2023/05/31 11:25:06;;;;;;;6.62;2.52;;;;;;;26.40;37.65;100450.45;1722567;81;21211;-51
2023/05/31 11:28:13;;;;;;;6.03;2.92;;;;;;;26.36;37.46;100438.93;1736983;81;21239;-53
2023/05/31 11:31:21;;;;;;;5.60;2.37;;;;;;;26.30;37.28;100445.66;1735037;82;21713;-51
2023/05/31 11:34:36;;;;;;;8.03;3.08;;;;;;;26.23;37.20;100444.22;1728027;81;21775;-52
2023/05/31 11:37:45;;;;;;;9.10;3.25;;;;;;;26.24;37.16;100438.32;1742869;81;21740;-51
2023/05/31 11:40:53;;;;;;;10.55;3.37;;;;;;;26.36;37.12;100446.50;1735621;81;21199;-53
2023/05/31 11:43:58;;;;;;;12.73;3.30;;;;;;;26.60;37.21;100449.07;1716679;82;21235;-54
2023/05/31 11:47:14;;;;;;;7.40;3.25;;;;;;;26.77;37.18;100444.05;1735889;82;21216;-51
2023/05/31 11:50:22;;;;;;;5.25;3.30;;;;;;;26.84;36.89;100447.44;1738267;82;21193;-50
2023/05/31 11:53:30;;;;;;;8.80;2.90;;;;;;;26.95;36.79;100455.30;1732124;82;21600;-51
2023/05/31 11:56:38;;;;;;;11.12;3.20;;;;;;;26.97;36.50;100445.48;1719539;81;21309;-51
2023/05/31 11:59:46;;;;;;;6.00;2.83;;;;;;;26.93;36.22;100439.27;1731814;82;21203;-52
2023/05/31 12:02:52;;;;;;;8.60;3.00;;;;;;;26.79;36.01;100439.55;1723482;82;21567;-51
2023/05/31 12:06:05;;;;;;;6.42;3.08;;;;;;;26.67;35.88;100449.66;1721225;82;21374;-51
2023/05/31 12:09:10;;;;;;;4.78;2.77;;;;;;;26.67;35.87;100441.81;1708349;82;22081;-52
2023/05/31 12:12:18;;;;;;;5.60;3.20;;;;;;;26.72;35.80;100439.01;1717618;82;21788;-52
2023/05/31 12:15:26;;;;;;;9.45;3.22;;;;;;;26.69;35.67;100438.98;1713042;82;21306;-51
2023/05/31 12:18:33;;;;;;;5.55;2.98;;;;;;;26.67;35.55;100433.38;1724142;82;22149;-50
2023/05/31 12:21:39;;;;;;;10.53;3.35;;;;;;;26.74;35.62;100439.00;1734312;82;21760;-51
2023/05/31 12:24:59;;;;;;;5.55;3.12;;;;;;;26.85;35.55;100443.49;1696621;83;21726;-51
2023/05/31 12:28:07;;;;;;;8.15;2.98;;;;;;;26.79;35.35;100437.59;1760826;80;21220;-50
2023/05/31 12:31:15;;;;;;;14.33;3.72;;;;;;;26.84;35.32;100433.39;1753706;81;21195;-52
2023/05/31 12:34:23;;;;;;;7.95;3.50;;;;;;;27.03;35.33;100444.89;1770680;80;21189;-50
2023/05/31 12:37:30;;;;;;;6.97;2.95;;;;;;;27.09;35.19;100435.33;1755349;80;21315;-50
2023/05/31 12:40:36;;;;;;;12.07;3.67;;;;;;;27.04;35.01;100419.31;1767489;80;21228;-50
2023/05/31 12:43:42;;;;;;;9.60;3.15;;;;;;;26.95;34.81;100442.65;1747396;79;21738;-53
2023/05/31 12:46:49;;;;;;;6.37;2.75;;;;;;;26.68;34.69;100441.53;1770846;80;21273;-49
2023/05/31 12:49:55;;;;;;;16.17;4.08;;;;;;;26.33;34.58;100438.08;1768459;79;21203;-52
2023/05/31 12:53:03;;;;;;;7.72;3.05;;;;;;;26.09;34.60;100455.69;1771732;80;21346;-49
2023/05/31 12:56:09;;;;;;;7.03;3.10;;;;;;;25.99;34.70;100444.41;1756774;80;21235;-50
2023/05/31 12:59:16;;;;;;;7.15;3.15;;;;;;;25.92;34.70;100440.45;1773722;80;21354;-51
2023/05/31 13:02:23;;;;;;;9.23;3.40;;;;;;;25.84;34.72;100432.56;1721326;82;21269;-51
2023/05/31 13:05:29;;;;;;;10.95;3.67;;;;;;;25.83;34.73;100442.66;1749053;81;21573;-50
2023/05/31 13:08:35;;;;;;;8.80;3.40;;;;;;;25.84;34.75;100442.94;1743052;81;21232;-50
2023/05/31 13:11:48;;;;;;;6.30;3.10;;;;;;;25.87;34.77;100442.38;1741318;80;21271;-52
2023/05/31 13:14:52;;;;;;;9.28;3.47;;;;;;;25.93;34.71;100444.08;1753173;81;21770;-52
2023/05/31 13:17:59;;;;;;;8.13;3.05;;;;;;;26.11;34.78;100436.61;1757673;81;21785;-52
2023/05/31 13:21:05;;;;;;;6.05;2.52;;;;;;;26.35;34.77;100442.02;1760992;81;21729;-52
2023/05/31 13:24:13;;;;;;;7.80;3.33;;;;;;;26.54;34.74;100435.30;1764328;80;22378;-51
2023/05/31 13:27:20;;;;;;;6.28;2.80;;;;;;;26.63;34.57;100439.23;1761739;80;21192;-51
2023/05/31 13:30:26;;;;;;;6.05;2.72;;;;;;;26.56;34.41;100438.09;1768910;79;21895;-50
2023/05/31 13:33:35;;;;;;;6.42;2.42;;;;;;;26.39;34.29;100440.33;1765690;80;21882;-51
2023/05/31 13:36:39;;;;;;;5.80;2.98;;;;;;;26.28;34.24;100438.61;1750423;80;21346;-51
2023/05/31 13:39:48;;;;;;;5.53;2.90;;;;;;;26.20;34.21;100441.96;1736846;81;21768;-49
2023/05/31 13:42:56;;;;;;;6.33;2.85;;;;;;;26.11;34.08;100426.79;1778713;80;21762;-51
2023/05/31 13:46:01;;;;;;;4.25;2.50;;;;;;;26.01;34.07;100438.83;1755374;81;21642;-51
2023/05/31 13:49:08;;;;;;;5.83;2.60;;;;;;;25.99;34.02;100437.40;1759272;80;21208;-51
2023/05/31 13:52:15;;;;;;;5.75;3.00;;;;;;;25.90;33.96;100439.88;1734077;82;21240;-50
2023/05/31 13:55:26;;;;;;;8.33;3.12;;;;;;;25.93;34.03;100442.12;1747314;80;21271;-52
2023/05/31 13:58:32;;;;;;;7.33;2.75;;;;;;;25.92;33.97;100441.00;1754198;80;21737;-52
2023/05/31 14:01:39;;;;;;;6.37;2.55;;;;;;;25.95;33.98;100439.91;1755932;79;21172;-49
2023/05/31 14:04:46;;;;;;;7.80;2.75;;;;;;;25.98;34.00;100437.09;1760434;80;21817;-51
2023/05/31 14:07:53;;;;;;;6.85;3.20;;;;;;;25.85;33.87;100441.80;1756173;80;21247;-53
2023/05/31 14:10:59;;;;;;;5.83;2.92;;;;;;;25.82;33.92;100443.76;1774667;80;21729;-53
2023/05/31 14:14:04;;;;;;;6.17;2.77;;;;;;;25.89;33.97;100439.61;1763387;81;21249;-53
2023/05/31 14:17:10;;;;;;;6.60;3.12;;;;;;;25.89;33.84;100440.16;1714575;82;21463;-53
2023/05/31 14:20:18;;;;;;;4.87;2.77;;;;;;;25.83;33.76;100438.45;1712970;83;21713;-52
2023/05/31 14:23:24;;;;;;;7.72;2.85;;;;;;;25.82;33.77;100435.34;1712341;83;22200;-54
2023/05/31 14:26:30;;;;;;;6.92;2.50;;;;;;;25.86;33.78;100436.50;1747350;80;21330;-55
2023/05/31 14:29:37;;;;;;;6.70;2.65;;;;;;;25.91;33.77;100433.72;1728322;82;21550;-53
2023/05/31 14:32:44;;;;;;;9.80;2.87;;;;;;;25.88;33.74;100443.51;1725955;81;21657;-54
2023/05/31 14:35:52;;;;;;;7.60;3.00;;;;;;;25.78;33.66;100437.02;1755391;80;21188;-53
2023/05/31 14:38:59;;;;;;;5.30;2.85;;;;;;;25.66;33.57;100441.45;1742168;82;21232;-54
2023/05/31 14:42:06;;;;;;;9.33;2.52;;;;;;;25.51;33.52;100438.58;1728017;82;21221;-57
2023/05/31 14:45:14;;;;;;;6.20;2.42;;;;;;;25.49;33.55;100442.75;1743179;82;21210;-54
2023/05/31 14:48:22;;;;;;;9.68;4.28;;;;;;;25.77;33.56;100432.52;1743582;82;21233;-53